KAWO Airport Information

Runway Information
Runway 11 Length 3500 ft width 75 ft
Elevation 129 ft Threshold ft Heading 127
Runway 29 Length 3500 ft Width 75 ft
Elevation 124 ft Threshold ft Heading 307
Runway 16 Length 5333 ft width 100 ft
Elevation 137 ft Threshold ft Heading 179
Runway 34 Length 5333 ft Width 100 ft
Elevation 123 ft Threshold ft Heading 359
Airport Frequencies
Type AWOS Name AWOS 3 Frequency 135.625 MHZ
Type CNTR Name SEATTLE CN Frequency 128.5 MHZ
Type UNIC Name CTAF/UNICO Frequency 122.7 MHZ
Airport Navaids
Airport Weather Information & NOTAM
ADDS - METARS form results

(1134 UTC 28 June 2022)
Data provider http://aviationweather.gov/metar/data/
 
METAR text: KAWO 281056Z AUTO 20003KT 10SM CLR 16/11 A2997 RMK AO2 SLP152 T01610111
Conditions at: KAWO (ARLINGTON MUNI , WA, US) observed 1056 UTC 28 June 2022
Temperature: 16.1°C (61°F)
Dewpoint: 11.1°C (52°F) [RH = 72%]
Pressure (altimeter): 29.97 inches Hg (1015.0 mb)
[Sea-level pressure: 1015.2 mb]
Winds: from the SSW (200 degrees) at 3 MPH (3 knots; 1.5 m/s)
Visibility: 10 or more miles (16+ km)
Ceiling: at least 12,000 feet AGL
Clouds: sky clear below 12,000 feet AGL
Weather: automated observation with no human augmentation;
there may or may not be significant weather present at this time